createdAt,value
2019-03-16T00:00:15.120Z,1.52
2019-03-16T00:02:45.896Z,1.92
2019-03-16T00:05:14.934Z,1.40
2019-03-16T00:07:44.153Z,1.77
2019-03-16T00:10:13.357Z,1.50
2019-03-16T00:12:42.426Z,1.62
2019-03-16T00:15:11.552Z,1.60
2019-03-16T00:17:40.704Z,1.70
2019-03-16T00:20:10.617Z,1.35
2019-03-16T00:22:39.774Z,1.85
2019-03-16T00:25:10.038Z,2.00
2019-03-16T00:27:39.181Z,1.67
2019-03-16T00:30:11.942Z,1.47
2019-03-16T00:32:41.001Z,1.92
2019-03-16T00:35:10.169Z,2.62
2019-03-16T00:37:39.307Z,1.62
2019-03-16T00:40:09.406Z,1.60
2019-03-16T00:42:38.551Z,2.08
2019-03-16T00:45:09.654Z,1.80
2019-03-16T00:47:38.842Z,1.77
2019-03-16T00:50:11.119Z,2.12
2019-03-16T00:52:40.353Z,1.45
2019-03-16T00:55:09.768Z,1.80
2019-03-16T00:57:38.910Z,1.72
2019-03-16T01:00:09.533Z,1.72
2019-03-16T01:02:38.670Z,1.52
2019-03-16T01:05:08.027Z,1.75
2019-03-16T01:07:37.249Z,1.60
2019-03-16T01:10:07.476Z,1.10
2019-03-16T01:12:36.627Z,1.67
2019-03-16T01:15:07.607Z,1.35
2019-03-16T01:17:36.782Z,1.50
2019-03-16T01:20:07.311Z,1.70
2019-03-16T01:22:36.446Z,1.72
2019-03-16T01:25:06.097Z,1.30
2019-03-16T01:27:35.198Z,1.27
2019-03-16T01:30:06.013Z,1.50
2019-03-16T01:32:40.450Z,1.80
2019-03-16T01:35:05.907Z,1.95
2019-03-16T01:37:34.972Z,2.25
2019-03-16T01:40:04.729Z,1.52
2019-03-16T01:42:33.862Z,1.75
2019-03-16T01:45:03.016Z,1.55
2019-03-16T01:47:32.068Z,1.62
2019-03-16T01:50:01.209Z,1.82
2019-03-16T01:52:31.337Z,2.47
2019-03-16T01:55:00.470Z,1.98
2019-03-16T01:57:29.585Z,2.62
2019-03-16T01:59:58.677Z,1.22
2019-03-16T02:02:27.781Z,2.20
2019-03-16T02:04:57.013Z,1.72
2019-03-16T02:07:26.136Z,1.90
2019-03-16T02:09:55.272Z,1.65
2019-03-16T02:12:24.403Z,1.55
2019-03-16T02:14:53.473Z,1.80
2019-03-16T02:17:22.573Z,1.52
2019-03-16T02:19:51.731Z,1.82
2019-03-16T02:22:20.760Z,1.92
2019-03-16T02:24:49.943Z,1.52
2019-03-16T02:27:19.070Z,2.05
2019-03-16T02:29:48.129Z,1.80
2019-03-16T02:32:17.259Z,1.95
2019-03-16T02:34:46.430Z,1.67
2019-03-16T02:37:15.524Z,1.98
2019-03-16T02:39:44.684Z,1.70
2019-03-16T02:42:13.750Z,1.82
2019-03-16T02:44:42.884Z,1.40
2019-03-16T02:47:12.011Z,1.70
2019-03-16T02:49:41.140Z,1.57
2019-03-16T02:52:10.274Z,1.67
2019-03-16T02:54:39.416Z,1.57
2019-03-16T02:57:08.532Z,1.42
2019-03-16T02:59:37.607Z,1.57
2019-03-16T03:02:06.751Z,2.35
2019-03-16T03:04:35.839Z,2.02
2019-03-16T03:07:04.987Z,1.70
2019-03-16T03:09:34.229Z,1.50
2019-03-16T03:12:03.374Z,2.08
2019-03-16T03:14:32.486Z,2.25
2019-03-16T03:17:01.607Z,1.82
2019-03-16T03:19:30.765Z,1.90
2019-03-16T03:21:59.839Z,1.90
2019-03-16T03:24:28.943Z,2.20
2019-03-16T03:26:58.041Z,2.02
2019-03-16T03:29:27.244Z,1.90
2019-03-16T03:31:56.404Z,1.70
2019-03-16T03:34:25.568Z,1.87
2019-03-16T03:36:54.621Z,2.02
2019-03-16T03:39:23.789Z,1.67
2019-03-16T03:41:52.849Z,2.10
2019-03-16T03:44:21.939Z,2.12
2019-03-16T03:46:51.024Z,1.67
2019-03-16T03:49:20.125Z,1.98
2019-03-16T03:51:49.293Z,2.00
2019-03-16T03:54:18.411Z,1.57
2019-03-16T03:56:47.540Z,1.77
2019-03-16T03:59:16.672Z,2.12
2019-03-16T04:01:45.803Z,2.25
2019-03-16T04:04:16.219Z,1.37
2019-03-16T04:06:45.485Z,2.05
2019-03-16T04:09:14.620Z,1.47
2019-03-16T04:11:43.766Z,2.12
2019-03-16T04:14:12.900Z,2.17
2019-03-16T04:16:41.972Z,2.12
2019-03-16T04:19:11.158Z,2.20
2019-03-16T04:21:40.306Z,1.92
2019-03-16T04:24:09.384Z,1.77
2019-03-16T04:26:38.509Z,1.22
2019-03-16T04:29:07.579Z,1.65
2019-03-16T04:31:36.684Z,1.80
2019-03-16T04:34:05.811Z,1.80
2019-03-16T04:36:34.923Z,1.45
2019-03-16T04:39:05.795Z,1.35
2019-03-16T04:41:34.825Z,1.75
2019-03-16T04:44:03.977Z,1.72
2019-03-16T04:46:33.070Z,2.37
2019-03-16T04:49:02.091Z,2.33
2019-03-16T04:51:31.217Z,1.50
2019-03-16T04:54:00.450Z,1.62
2019-03-16T04:56:30.667Z,1.90
2019-03-16T04:58:59.753Z,1.98
2019-03-16T05:01:28.819Z,1.92
2019-03-16T05:03:57.998Z,1.90
2019-03-16T05:06:27.115Z,2.40
2019-03-16T05:08:56.314Z,1.75
2019-03-16T05:11:25.413Z,1.45
2019-03-16T05:13:54.557Z,1.57
2019-03-16T05:16:23.687Z,1.77
2019-03-16T05:18:52.752Z,2.27
2019-03-16T05:21:21.882Z,1.57
2019-03-16T05:23:51.009Z,1.70
2019-03-16T05:26:20.157Z,1.90
2019-03-16T05:28:50.383Z,1.85
2019-03-16T05:31:19.467Z,1.37
2019-03-16T05:33:48.602Z,1.60
2019-03-16T05:36:17.710Z,1.52
2019-03-16T05:38:46.828Z,1.92
2019-03-16T05:41:15.946Z,2.15
2019-03-16T05:43:45.104Z,1.57
2019-03-16T05:46:14.248Z,1.77
2019-03-16T05:48:43.305Z,1.80
2019-03-16T05:51:12.473Z,2.20
2019-03-16T05:53:41.605Z,1.90
2019-03-16T05:56:11.315Z,1.80
2019-03-16T05:58:40.946Z,1.75
2019-03-16T06:01:10.214Z,1.80
2019-03-16T06:03:39.283Z,1.50
2019-03-16T06:06:08.428Z,1.72
2019-03-16T06:08:38.598Z,2.30
2019-03-16T06:11:07.684Z,1.87
2019-03-16T06:13:36.820Z,1.72
2019-03-16T06:16:05.977Z,1.85
2019-03-16T06:18:35.178Z,1.82
2019-03-16T06:21:04.920Z,2.08
2019-03-16T06:23:33.958Z,1.90
2019-03-16T06:26:03.019Z,1.80
2019-03-16T06:28:33.181Z,2.08
2019-03-16T06:31:02.331Z,1.92
2019-03-16T06:33:31.392Z,1.92
2019-03-16T06:36:00.531Z,1.55
2019-03-16T06:38:29.669Z,1.80
2019-03-16T06:40:58.807Z,1.62
2019-03-16T06:43:27.879Z,1.77
2019-03-16T06:45:56.983Z,1.87
2019-03-16T06:48:26.086Z,2.37
2019-03-16T06:50:55.197Z,1.47
2019-03-16T06:53:24.282Z,1.40
2019-03-16T06:55:53.640Z,2.17
2019-03-16T06:58:22.818Z,1.57
2019-03-16T07:00:51.912Z,1.50
2019-03-16T07:03:21.592Z,1.67
2019-03-16T07:05:51.123Z,1.60
2019-03-16T07:08:20.254Z,1.50
2019-03-16T07:10:49.362Z,1.67
2019-03-16T07:13:18.789Z,1.40
2019-03-16T07:15:47.997Z,1.42
2019-03-16T07:18:17.153Z,1.95
2019-03-16T07:20:46.343Z,1.57
2019-03-16T07:23:15.622Z,2.60
2019-03-16T07:25:44.866Z,2.58
2019-03-16T07:28:14.046Z,1.92
2019-03-16T07:30:43.254Z,1.75
2019-03-16T07:33:12.451Z,1.30
2019-03-16T07:35:41.538Z,1.27
2019-03-16T07:38:10.649Z,1.20
2019-03-16T07:40:40.275Z,1.20
2019-03-16T07:43:09.497Z,1.77
2019-03-16T07:45:38.847Z,1.50
2019-03-16T07:48:08.162Z,1.75
2019-03-16T07:50:37.368Z,1.60
2019-03-16T07:53:06.565Z,2.00
2019-03-16T07:55:35.648Z,1.75
2019-03-16T07:58:04.785Z,2.12
2019-03-16T08:00:33.916Z,1.40
2019-03-16T08:03:02.989Z,1.90
2019-03-16T08:05:32.033Z,1.82
2019-03-16T08:08:01.262Z,2.40
2019-03-16T08:10:30.395Z,1.82
2019-03-16T08:12:59.521Z,1.95
2019-03-16T08:15:28.681Z,1.82
2019-03-16T08:17:57.791Z,1.47
2019-03-16T08:20:26.972Z,2.22
2019-03-16T08:22:56.078Z,1.98
2019-03-16T08:25:25.227Z,2.42
2019-03-16T08:27:54.867Z,1.72
2019-03-16T08:30:24.104Z,3.15
2019-03-16T08:32:53.260Z,2.33
2019-03-16T08:35:22.411Z,2.08
2019-03-16T08:37:51.590Z,2.45
2019-03-16T08:40:20.749Z,1.70
2019-03-16T08:42:51.486Z,3.30
2019-03-16T08:45:20.560Z,2.52
2019-03-16T08:47:49.662Z,3.10
2019-03-16T08:50:18.982Z,3.08
2019-03-16T08:52:48.133Z,2.90
2019-03-16T08:55:17.286Z,2.40
2019-03-16T08:57:46.403Z,3.22
2019-03-16T09:00:15.581Z,2.75
2019-03-16T09:02:44.685Z,2.72
2019-03-16T09:05:13.828Z,3.52
2019-03-16T09:08:02.324Z,3.60
2019-03-16T09:10:31.482Z,2.92
2019-03-16T09:13:00.650Z,4.25
2019-03-16T09:15:29.809Z,4.55
2019-03-16T09:17:58.866Z,2.92
2019-03-16T09:20:28.029Z,2.50
2019-03-16T09:22:57.097Z,1.90
2019-03-16T09:25:26.118Z,2.62
2019-03-16T09:27:55.361Z,2.20
2019-03-16T09:30:24.478Z,2.60
2019-03-16T09:32:53.634Z,2.50
2019-03-16T09:35:22.803Z,1.90
2019-03-16T09:37:51.909Z,2.20
2019-03-16T09:40:21.006Z,1.95
2019-03-16T09:42:50.342Z,1.77
2019-03-16T09:45:19.457Z,1.90
2019-03-16T09:47:48.560Z,1.77
2019-03-16T09:50:17.666Z,2.10
2019-03-16T09:52:48.932Z,2.40
2019-03-16T09:55:19.829Z,2.33
2019-03-16T09:57:49.251Z,2.45
2019-03-16T10:00:18.490Z,2.20
2019-03-16T10:02:47.589Z,1.90
2019-03-16T10:05:16.744Z,2.00
2019-03-16T10:07:45.940Z,2.50
2019-03-16T10:10:15.373Z,3.70
2019-03-16T10:12:44.539Z,3.02
2019-03-16T10:15:13.965Z,2.22
2019-03-16T10:17:43.110Z,2.12
2019-03-16T10:20:13.313Z,2.17
2019-03-16T10:22:42.526Z,2.22
2019-03-16T10:25:11.666Z,2.22
2019-03-16T10:27:40.864Z,3.62
2019-03-16T10:30:11.002Z,2.40
2019-03-16T10:32:40.236Z,1.92
2019-03-16T10:35:09.368Z,1.85
2019-03-16T10:37:38.483Z,2.20
2019-03-16T10:40:09.342Z,2.47
2019-03-16T10:42:38.453Z,3.30
2019-03-16T10:45:09.672Z,2.37
2019-03-16T10:47:38.721Z,2.10
2019-03-16T10:50:11.538Z,2.20
2019-03-16T10:52:40.744Z,2.25
2019-03-16T10:55:10.203Z,3.77
2019-03-16T10:57:39.354Z,2.00
2019-03-16T11:00:13.009Z,1.60
2019-03-16T11:02:42.183Z,1.80
2019-03-16T11:05:11.328Z,1.42
2019-03-16T11:07:40.529Z,2.10
2019-03-16T11:10:11.206Z,1.50
2019-03-16T11:12:40.491Z,1.40
2019-03-16T11:15:13.283Z,1.45
2019-03-16T11:17:42.479Z,1.40
2019-03-16T11:20:12.855Z,1.50
2019-03-16T11:22:41.957Z,1.15
2019-03-16T11:25:11.123Z,1.40
2019-03-16T11:27:40.429Z,1.22
2019-03-16T11:30:12.864Z,1.30
2019-03-16T11:32:42.027Z,1.47
2019-03-16T11:35:11.535Z,1.50
2019-03-16T11:37:40.658Z,1.72
2019-03-16T11:40:16.584Z,1.65
2019-03-16T11:42:45.812Z,2.10
2019-03-16T11:45:17.026Z,1.92
2019-03-16T11:47:46.365Z,1.57
2019-03-16T11:50:15.630Z,1.50
2019-03-16T11:52:44.776Z,1.20
2019-03-16T11:55:15.762Z,1.10
2019-03-16T11:57:46.990Z,0.93
2019-03-16T12:00:18.015Z,0.90
2019-03-16T12:02:47.914Z,0.70
2019-03-16T12:05:17.401Z,0.98
2019-03-16T12:07:46.686Z,1.15
2019-03-16T12:10:15.862Z,0.75
2019-03-16T12:12:48.222Z,0.80
2019-03-16T12:15:17.857Z,1.12
2019-03-16T12:17:47.049Z,0.62
2019-03-16T12:20:18.098Z,0.70
2019-03-16T12:22:48.026Z,0.80
2019-03-16T12:25:17.503Z,0.70
2019-03-16T12:27:47.052Z,0.62
2019-03-16T12:30:16.528Z,0.90
2019-03-16T12:32:45.689Z,1.02
2019-03-16T12:35:14.815Z,1.45
2019-03-16T12:37:45.585Z,1.40
2019-03-16T12:40:15.410Z,1.20
2019-03-16T12:42:44.729Z,0.80
2019-03-16T12:45:14.323Z,1.20
2019-03-16T12:47:43.559Z,1.00
2019-03-16T12:50:12.963Z,0.75
2019-03-16T12:52:42.124Z,0.85
2019-03-16T12:55:11.650Z,0.60
2019-03-16T12:57:40.719Z,0.60
2019-03-16T13:00:11.398Z,0.80
2019-03-16T13:02:40.601Z,0.70
2019-03-16T13:05:09.772Z,0.60
2019-03-16T13:07:38.901Z,0.62
2019-03-16T13:10:18.565Z,0.70
2019-03-16T13:12:47.921Z,0.80
2019-03-16T13:15:17.049Z,0.62
2019-03-16T13:17:47.513Z,0.70
2019-03-16T13:20:17.145Z,0.80
2019-03-16T13:22:46.273Z,0.80
2019-03-16T13:25:15.418Z,0.80
2019-03-16T13:27:44.545Z,0.70
2019-03-16T13:30:14.290Z,0.70
2019-03-16T13:32:45.005Z,0.90
2019-03-16T13:35:18.694Z,1.30
2019-03-16T13:37:47.977Z,1.02
2019-03-16T13:40:21.482Z,0.80
2019-03-16T13:42:54.366Z,0.60
2019-03-16T13:45:25.247Z,0.98
2019-03-16T13:47:54.487Z,0.70
2019-03-16T13:50:23.598Z,1.02
2019-03-16T13:52:53.617Z,0.80
2019-03-16T13:55:22.853Z,0.70
2019-03-16T13:57:51.958Z,0.70
2019-03-16T14:00:21.417Z,0.80
2019-03-16T14:02:51.803Z,0.82
2019-03-16T14:05:24.147Z,0.90
2019-03-16T14:07:53.651Z,0.50
2019-03-16T14:10:25.991Z,0.82
2019-03-16T14:12:55.291Z,1.07
2019-03-16T14:15:24.520Z,0.70
2019-03-16T14:17:58.317Z,0.82
2019-03-16T14:20:30.289Z,1.17
2019-03-16T14:23:05.842Z,0.98
2019-03-16T14:25:35.558Z,1.25
2019-03-16T14:28:05.094Z,1.40
2019-03-16T14:30:41.770Z,1.32
2019-03-16T14:33:07.939Z,1.50
2019-03-16T14:35:37.125Z,1.00
2019-03-16T14:38:06.227Z,1.22
2019-03-16T14:40:36.879Z,0.90
2019-03-16T14:43:19.548Z,1.10
2019-03-16T14:45:49.163Z,1.30
2019-03-16T14:48:18.897Z,1.35
2019-03-16T14:50:48.134Z,1.00
2019-03-16T14:53:17.669Z,0.93
2019-03-16T14:55:46.991Z,1.20
2019-03-16T14:58:17.219Z,0.93
2019-03-16T15:00:46.341Z,1.00
2019-03-16T15:03:15.432Z,1.12
2019-03-16T15:05:45.924Z,0.90
2019-03-16T15:08:15.423Z,1.00
2019-03-16T15:10:44.554Z,1.15
2019-03-16T15:13:14.724Z,1.05
2019-03-16T15:15:43.896Z,0.98
2019-03-16T15:18:13.094Z,0.95
2019-03-16T15:20:42.131Z,0.70
2019-03-16T15:23:11.391Z,0.90
2019-03-16T15:25:42.014Z,0.95
2019-03-16T15:28:11.194Z,0.98
2019-03-16T15:30:50.213Z,0.90
2019-03-16T15:33:11.122Z,1.15
2019-03-16T15:35:40.277Z,0.72
2019-03-16T15:38:39.068Z,1.20
2019-03-16T15:41:08.226Z,0.82
2019-03-16T15:43:37.363Z,1.00
2019-03-16T15:46:06.530Z,1.10
2019-03-16T15:48:35.689Z,0.95
2019-03-16T15:51:04.817Z,1.05
2019-03-16T15:53:35.046Z,1.00
2019-03-16T15:56:04.175Z,0.85
2019-03-16T15:58:33.327Z,0.72
2019-03-16T16:01:03.927Z,0.90
2019-03-16T16:03:33.408Z,0.70
2019-03-16T16:06:02.738Z,0.80
2019-03-16T16:08:32.185Z,0.75
2019-03-16T16:11:01.605Z,0.72
2019-03-16T16:13:31.023Z,0.57
2019-03-16T16:16:00.200Z,0.90
2019-03-16T16:18:29.647Z,0.88
2019-03-16T16:20:59.047Z,0.70
2019-03-16T16:23:29.319Z,1.00
2019-03-16T16:25:58.473Z,0.82
2019-03-16T16:28:27.595Z,0.68
2019-03-16T16:30:56.707Z,0.80
2019-03-16T16:33:26.272Z,1.00
2019-03-16T16:35:55.515Z,0.75
2019-03-16T16:38:24.661Z,0.88
2019-03-16T16:40:53.813Z,1.05
2019-03-16T16:43:23.166Z,1.07
2019-03-16T16:45:52.305Z,0.95
2019-03-16T16:48:21.637Z,1.10
2019-03-16T16:50:50.907Z,0.80
2019-03-16T16:53:20.117Z,1.10
2019-03-16T16:55:49.323Z,0.93
2019-03-16T16:58:18.564Z,1.00
2019-03-16T17:00:47.828Z,0.90
2019-03-16T17:03:16.968Z,1.42
2019-03-16T17:05:47.983Z,0.90
2019-03-16T17:08:17.123Z,0.90
2019-03-16T17:10:46.258Z,1.00
2019-03-16T17:13:15.799Z,1.10
2019-03-16T17:15:45.002Z,0.93
2019-03-16T17:18:14.079Z,0.60
2019-03-16T17:20:43.225Z,0.90
2019-03-16T17:23:12.461Z,0.80
2019-03-16T17:25:41.674Z,0.90
2019-03-16T17:28:10.815Z,0.90
2019-03-16T17:30:39.885Z,1.02
2019-03-16T17:33:09.093Z,1.00
2019-03-16T17:35:38.264Z,0.88
2019-03-16T17:38:07.318Z,0.70
2019-03-16T17:40:36.522Z,0.70
2019-03-16T17:43:05.730Z,0.53
2019-03-16T17:45:34.934Z,1.05
2019-03-16T17:48:04.076Z,0.78
2019-03-16T17:50:33.227Z,0.65
2019-03-16T17:53:02.437Z,0.90
2019-03-16T17:55:31.594Z,0.60
2019-03-16T17:58:00.754Z,1.07
2019-03-16T18:00:29.859Z,0.68
2019-03-16T18:02:59.019Z,0.60
2019-03-16T18:05:28.237Z,1.00
2019-03-16T18:07:57.375Z,1.10
2019-03-16T18:10:26.529Z,1.20
2019-03-16T18:12:55.665Z,1.00
2019-03-16T18:15:24.807Z,0.80
2019-03-16T18:17:53.956Z,0.80
2019-03-16T18:20:23.054Z,0.70
2019-03-16T18:22:52.651Z,1.07
2019-03-16T18:25:21.858Z,0.70
2019-03-16T18:27:50.923Z,0.80
2019-03-16T18:30:21.574Z,0.90
2019-03-16T18:32:50.772Z,0.98
2019-03-16T18:35:20.566Z,0.60
2019-03-16T18:37:49.749Z,0.90
2019-03-16T18:40:19.349Z,1.00
2019-03-16T18:42:48.527Z,0.90
2019-03-16T18:45:25.273Z,0.72
2019-03-16T18:47:54.739Z,0.98
2019-03-16T18:50:24.153Z,0.88
2019-03-16T18:52:54.649Z,0.78
2019-03-16T18:55:23.790Z,1.00
2019-03-16T18:57:53.683Z,1.22
2019-03-16T19:00:22.851Z,1.20
2019-03-16T19:02:52.280Z,1.22
2019-03-16T19:05:21.410Z,0.80
2019-03-16T19:07:50.808Z,0.70
2019-03-16T19:10:19.950Z,0.80
2019-03-16T19:12:49.081Z,1.12
2019-03-16T19:15:18.655Z,1.00
2019-03-16T19:17:58.684Z,1.07
2019-03-16T19:20:20.087Z,1.20
2019-03-16T19:22:50.066Z,0.93
2019-03-16T19:25:20.732Z,0.90
2019-03-16T19:27:50.206Z,1.00
2019-03-16T19:30:19.404Z,0.78
2019-03-16T19:32:48.679Z,0.95
2019-03-16T19:35:17.814Z,0.88
2019-03-16T19:37:47.028Z,1.17
2019-03-16T19:40:17.621Z,0.98
2019-03-16T19:42:47.361Z,1.30
2019-03-16T19:45:16.721Z,1.20
2019-03-16T19:47:45.941Z,1.17
2019-03-16T19:50:15.519Z,1.15
2019-03-16T19:52:44.663Z,0.80
2019-03-16T19:55:15.446Z,1.35
2019-03-16T19:57:44.542Z,1.22
2019-03-16T20:00:17.624Z,1.00
2019-03-16T20:02:51.048Z,1.50
2019-03-16T20:05:18.615Z,1.10
2019-03-16T20:07:48.419Z,0.98
2019-03-16T20:10:18.407Z,0.98
2019-03-16T20:12:47.524Z,1.30
2019-03-16T20:15:16.704Z,1.07
2019-03-16T20:17:45.915Z,0.80
2019-03-16T20:20:16.526Z,0.90
2019-03-16T20:22:45.631Z,0.80
2019-03-16T20:25:14.962Z,0.85
2019-03-16T20:27:44.182Z,1.02
2019-03-16T20:30:25.691Z,0.80
2019-03-16T20:32:50.320Z,1.02
2019-03-16T20:35:18.247Z,0.70
2019-03-16T20:37:47.472Z,0.82
2019-03-16T20:40:16.706Z,0.80
2019-03-16T20:42:45.837Z,0.80
2019-03-16T20:45:15.084Z,0.75
2019-03-16T20:47:44.334Z,0.80
2019-03-16T20:50:14.936Z,0.90
2019-03-16T20:52:44.162Z,0.80
2019-03-16T20:55:13.388Z,0.98
2019-03-16T20:57:42.484Z,1.15
2019-03-16T21:00:12.090Z,0.80
2019-03-16T21:02:41.320Z,0.90
2019-03-16T21:05:10.627Z,0.70
2019-03-16T21:07:39.772Z,0.80
2019-03-16T21:10:12.424Z,0.82
2019-03-16T21:12:41.520Z,0.98
2019-03-16T21:15:12.156Z,0.90
2019-03-16T21:17:41.273Z,0.72
2019-03-16T21:20:19.627Z,0.88
2019-03-16T21:22:48.803Z,0.80
2019-03-16T21:25:17.984Z,1.10
2019-03-16T21:27:47.133Z,1.17
2019-03-16T21:30:16.735Z,1.00
2019-03-16T21:32:45.932Z,0.72
2019-03-16T21:35:15.066Z,1.02
2019-03-16T21:37:44.293Z,0.70
2019-03-16T21:40:13.805Z,0.80
2019-03-16T21:42:42.963Z,0.90
2019-03-16T21:45:13.562Z,0.70
2019-03-16T21:47:42.735Z,0.90
2019-03-16T21:50:12.371Z,1.00
2019-03-16T21:52:44.221Z,1.07
2019-03-16T21:55:12.752Z,0.82
2019-03-16T21:57:42.946Z,0.90
2019-03-16T22:00:13.615Z,0.85
2019-03-16T22:02:42.854Z,0.93
2019-03-16T22:05:11.993Z,0.65
2019-03-16T22:07:41.162Z,0.80
2019-03-16T22:10:14.869Z,1.00
2019-03-16T22:12:44.057Z,1.12
2019-03-16T22:15:16.582Z,0.72
2019-03-16T22:17:45.791Z,0.95
2019-03-16T22:20:18.365Z,1.05
2019-03-16T22:22:47.496Z,0.60
2019-03-16T22:25:16.645Z,0.90
2019-03-16T22:27:45.685Z,0.90
2019-03-16T22:30:15.341Z,0.90
2019-03-16T22:32:44.456Z,0.78
2019-03-16T22:35:13.612Z,0.82
2019-03-16T22:37:42.753Z,0.75
2019-03-16T22:40:12.387Z,0.72
2019-03-16T22:42:42.625Z,0.72
2019-03-16T22:45:12.063Z,0.60
2019-03-16T22:47:41.254Z,0.65
2019-03-16T22:50:11.415Z,0.70
2019-03-16T22:52:40.613Z,0.80
2019-03-16T22:55:10.840Z,0.80
2019-03-16T22:57:40.002Z,0.50
2019-03-16T23:00:13.585Z,0.70
2019-03-16T23:02:44.301Z,0.70
2019-03-16T23:05:13.430Z,0.80
2019-03-16T23:07:42.633Z,0.57
2019-03-16T23:10:12.692Z,0.70
2019-03-16T23:12:41.800Z,0.55
2019-03-16T23:15:11.272Z,0.90
2019-03-16T23:17:40.465Z,0.45
2019-03-16T23:20:09.999Z,0.68
2019-03-16T23:22:39.135Z,0.70
2019-03-16T23:25:08.874Z,0.90
2019-03-16T23:27:38.063Z,0.60
2019-03-16T23:30:08.291Z,0.62
2019-03-16T23:32:37.470Z,0.57
2019-03-16T23:35:08.159Z,0.68
2019-03-16T23:37:37.281Z,0.60
2019-03-16T23:40:07.926Z,0.60
2019-03-16T23:42:37.156Z,0.78
2019-03-16T23:45:06.864Z,0.65
2019-03-16T23:47:36.994Z,0.90
2019-03-16T23:50:07.509Z,0.82
2019-03-16T23:52:37.099Z,0.70
2019-03-16T23:55:06.996Z,0.68
2019-03-16T23:57:36.224Z,0.80
